Terminal Aerodrome Forecast
Issued by NWS Jackson, MS

Home | Current Version | Previous Version | Text Only | Print | Product List | Glossary On
Versions: 1 2 3 4 5 6 7 8 9 10 11 12 13 14
932
FTUS44 KJAN 281122
TAFMEI
TAF
KMEI 281122Z 2812/2912 25009KT P6SM SCT070 SCT120
     FM290100 23005KT P6SM -TSRA SCT025CB BKN050=

USA.gov is the U.S. government's official web portal to all federal, state and local government web resources and services.